Aviation Digital Data Service (ADDS)

Output produced by METARs form (1125 UTC 19 June 2019)
found at http://www.aviationweather.gov/metar/data/
 
TAF SYCJ 191100Z 1912/2012 05006KT 9999 SCT016 BKN035 BKN100 
     TEMPO 1916/1920 5000 SHRA RA FEW010CB BKN034 BKN080 
     BECMG 1923/2001 9999 SCT015 SCT037 BKN090 
     BECMG 2004/2006 5000 SHRA RA BKN034 BKN080
       
TAF SYKM 191100Z 1912/1923 07012KT 9999 SCT016 BKN035 BKN090 
     BECMG 1916/1918 3000 TSRA FEW010CB OVC032
       
TAF SYLT 191104Z 1912/1923 07012KT 9999 BKN020 SCT038